| time (UTC) | temp F | wind direction | speed MPH | gust MPH | rain 1hr in | rain 24hr in | rain mn in | humidity % | barometer mb |
| 20260506051121 | 43 | 106 | 1.0 | 1.0 | 0.00 | 0.01 | 0.01 | 87 | 1019.8 |
| 20260506050619 | 44 | 139 | 0.0 | 1.0 | 0.00 | 0.01 | 0.01 | 85 | 1019.8 |
| 20260506050116 | 44 | 128 | 0.0 | 0.0 | 0.00 | 0.01 | 0.01 | 85 | 1019.8 |
| 20260506045109 | 44 | 113 | 1.0 | 1.0 | 0.00 | 0.01 | 0.01 | 85 | 1019.7 |
| 20260506044607 | 44 | 136 | 0.0 | 1.0 | 0.00 | 0.01 | 0.01 | 87 | 1019.8 |
| 20260506044104 | 44 | 139 | 0.0 | 2.0 | 0.00 | 0.01 | 0.01 | 86 | 1019.6 |
| 20260506043601 | 45 | 134 | 0.0 | 0.0 | 0.00 | 0.01 | 0.01 | 86 | 1019.2 |
| 20260506043059 | 45 | 132 | 1.0 | 1.0 | 0.00 | 0.01 | 0.01 | 85 | 1019.2 |
| 20260506042558 | 45 | 132 | 0.0 | 1.0 | 0.00 | 0.01 | 0.01 | 86 | 1019.1 |
| 20260506042055 | 45 | 132 | 0.0 | 0.0 | 0.00 | 0.01 | 0.01 | 86 | 1019.2 |
| 20260506041554 | 45 | 132 | 0.0 | 0.0 | 0.00 | 0.01 | 0.01 | 86 | 1019.3 |
| 20260506041050 | 46 | 128 | 0.0 | 0.0 | 0.00 | 0.01 | 0.01 | 86 | 1019.3 |
| 20260506040548 | 46 | 130 | 0.0 | 0.0 | 0.00 | 0.01 | 0.01 | 85 | 1019.2 |
| 20260506040044 | 47 | 127 | 0.0 | 1.0 | 0.00 | 0.01 | 0.01 | 83 | 1019.2 |
| 20260506035541 | 47 | 127 | 1.0 | 2.0 | 0.00 | 0.01 | 0.01 | 82 | 1019.0 |
| 20260506035038 | 47 | 132 | 0.0 | 0.0 | 0.00 | 0.01 | 0.01 | 81 | 1019.0 |
| 20260506034535 | 47 | 132 | 0.0 | 2.0 | 0.00 | 0.01 | 0.01 | 81 | 1018.6 |
| 20260506034032 | 48 | 127 | 2.0 | 3.0 | 0.00 | 0.01 | 0.01 | 79 | 1018.6 |
| 20260506033530 | 48 | 129 | 0.0 | 2.0 | 0.00 | 0.01 | 0.01 | 74 | 1018.3 |
| 20260506033026 | 49 | 126 | 0.0 | 0.0 | 0.00 | 0.01 | 0.01 | 77 | 1018.5 |
| 20260506032524 | 50 | 118 | 0.0 | 1.0 | 0.00 | 0.01 | 0.01 | 70 | 1018.2 |
| 20260506032020 | 50 | 124 | 0.0 | 0.0 | 0.00 | 0.01 | 0.01 | 72 | 1018.5 |
| 20260506031518 | 50 | 108 | 1.0 | 1.0 | 0.00 | 0.01 | 0.01 | 71 | 1018.3 |
| 20260506031015 | 50 | 85 | 0.0 | 0.0 | 0.00 | 0.01 | 0.01 | 72 | 1018.0 |
| 20260506030513 | 52 | 132 | 0.0 | 0.0 | 0.00 | 0.01 | 0.01 | 70 | 1018.1 |
| 20260506030010 | 53 | 131 | 0.0 | 1.0 | 0.00 | 0.01 | 0.01 | 66 | 1018.0 |
| 20260506025507 | 53 | 276 | 2.0 | 6.0 | 0.00 | 0.01 | 0.01 | 64 | 1018.1 |
| 20260506025003 | 53 | 10 | 4.0 | 4.0 | 0.00 | 0.01 | 0.01 | 64 | 1017.9 |
| 20260506024500 | 53 | 124 | 1.0 | 4.0 | 0.00 | 0.01 | 0.01 | 66 | 1017.7 |
| 20260506023955 | 53 | 168 | 2.0 | 4.0 | 0.00 | 0.01 | 0.01 | 65 | 1018.0 |
| 20260506023453 | 53 | 122 | 4.0 | 9.0 | 0.00 | 0.01 | 0.01 | 65 | 1018.0 |
| 20260506022949 | 54 | 335 | 4.0 | 7.0 | 0.00 | 0.01 | 0.01 | 65 | 1017.7 |
| 20260506022447 | 54 | 73 | 3.0 | 7.0 | 0.00 | 0.01 | 0.01 | 65 | 1017.7 |
| 20260506021945 | 55 | 267 | 3.0 | 6.0 | 0.00 | 0.01 | 0.01 | 64 | 1017.5 |
| 20260506021442 | 56 | 296 | 6.0 | 9.0 | 0.00 | 0.01 | 0.01 | 61 | 1017.6 |
| 20260506020939 | 56 | 330 | 4.0 | 6.0 | 0.00 | 0.01 | 0.01 | 61 | 1017.6 |
| 20260506020437 | 56 | 83 | 4.0 | 7.0 | 0.00 | 0.01 | 0.01 | 60 | 1017.5 |
| 20260506015934 | 57 | 277 | 6.0 | 7.0 | 0.00 | 0.01 | 0.01 | 59 | 1017.4 |
| 20260506015431 | 57 | 285 | 5.0 | 8.0 | 0.00 | 0.01 | 0.01 | 58 | 1017.5 |
| 20260506014928 | 57 | 311 | 4.0 | 8.0 | 0.00 | 0.01 | 0.01 | 57 | 1017.2 |
| 20260506014425 | 57 | 93 | 4.0 | 8.0 | 0.00 | 0.01 | 0.01 | 57 | 1017.2 |
| 20260506013921 | 58 | 313 | 7.0 | 11.0 | 0.00 | 0.01 | 0.01 | 56 | 1017.2 |
| 20260506013420 | 58 | 302 | 6.0 | 8.0 | 0.00 | 0.01 | 0.01 | 54 | 1017.4 |
| 20260506012915 | 58 | 305 | 6.0 | 7.0 | 0.00 | 0.01 | 0.01 | 53 | 1017.5 |
| 20260506012412 | 58 | 304 | 4.0 | 6.0 | 0.00 | 0.01 | 0.01 | 55 | 1017.2 |
| 20260506011909 | 59 | 325 | 6.0 | 11.0 | 0.00 | 0.01 | 0.01 | 55 | 1017.5 |
| 20260506011406 | 59 | 301 | 5.0 | 7.0 | 0.00 | 0.01 | 0.01 | 49 | 1017.2 |
| 20260506010903 | 60 | 297 | 7.0 | 9.0 | 0.00 | 0.01 | 0.01 | 50 | 1017.2 |
| 20260506010402 | 60 | 14 | 8.0 | 11.0 | 0.00 | 0.01 | 0.01 | 48 | 1017.2 |
| 20260506005858 | 60 | 280 | 4.0 | 9.0 | 0.00 | 0.01 | 0.01 | 49 | 1017.2 |
| 20260506005355 | 61 | 245 | 4.0 | 6.0 | 0.00 | 0.01 | 0.01 | 46 | 1017.2 |
| 20260506004850 | 60 | 171 | 1.0 | 2.0 | 0.00 | 0.01 | 0.01 | 48 | 1017.1 |
| 20260506004349 | 61 | 143 | 1.0 | 2.0 | 0.00 | 0.01 | 0.01 | 51 | 1017.1 |
| 20260506003845 | 59 | 142 | 1.0 | 2.0 | 0.00 | 0.01 | 0.01 | 50 | 1017.2 |
| 20260506003341 | 59 | 130 | 1.0 | 2.0 | 0.00 | 0.01 | 0.01 | 50 | 1017.4 |
| 20260506002838 | 60 | 113 | 1.0 | 1.0 | 0.00 | 0.01 | 0.01 | 51 | 1017.0 |
| 20260506002334 | 61 | 134 | 3.0 | 3.0 | 0.00 | 0.01 | 0.01 | 46 | 1017.1 |
| 20260506001829 | 59 | 136 | 1.0 | 1.0 | 0.00 | 0.01 | 0.01 | 54 | 1017.0 |
| 20260506001327 | 57 | 125 | 0.0 | 1.0 | 0.00 | 0.01 | 0.01 | 61 | 1017.0 |
| 20260506000824 | 57 | 113 | 0.0 | 4.0 | 0.00 | 0.01 | 0.01 | 62 | 1017.0 |
| 20260506000323 | 57 | 140 | 0.0 | 3.0 | 0.00 | 0.01 | 0.01 | 59 | 1017.0 |
| 20260505235818 | 58 | 143 | 1.0 | 2.0 | 0.00 | 0.01 | 0.01 | 51 | 1016.9 |
| 20260505235316 | 58 | 109 | 0.0 | 0.0 | 0.00 | 0.01 | 0.01 | 49 | 1016.9 |
| 20260505234813 | 58 | 119 | 0.0 | 1.0 | 0.00 | 0.01 | 0.01 | 49 | 1016.8 |
| 20260505234310 | 58 | 117 | 0.0 | 0.0 | 0.00 | 0.01 | 0.01 | 50 | 1017.1 |
| 20260505233807 | 58 | 113 | 1.0 | 2.0 | 0.00 | 0.01 | 0.01 | 49 | 1016.9 |
| 20260505233305 | 58 | 119 | 0.0 | 2.0 | 0.00 | 0.01 | 0.01 | 51 | 1017.1 |
| 20260505232802 | 59 | 352 | 3.0 | 3.0 | 0.00 | 0.01 | 0.01 | 49 | 1017.0 |
| 20260505232259 | 58 | 128 | 0.0 | 1.0 | 0.00 | 0.01 | 0.01 | 50 | 1016.8 |
| 20260505231755 | 58 | 69 | 1.0 | 1.0 | 0.00 | 0.01 | 0.01 | 48 | 1017.0 |
| 20260505231254 | 59 | 51 | 4.0 | 4.0 | 0.00 | 0.01 | 0.01 | 47 | 1016.8 |
| 20260505230752 | 59 | 105 | 0.0 | 4.0 | 0.00 | 0.01 | 0.01 | 47 | 1016.9 |
| 20260505230249 | 58 | 115 | 1.0 | 3.0 | 0.00 | 0.01 | 0.01 | 50 | 1017.0 |
| 20260505225745 | 59 | 86 | 2.0 | 2.0 | 0.00 | 0.01 | 0.01 | 47 | 1016.9 |
| 20260505225243 | 59 | 47 | 3.0 | 7.0 | 0.00 | 0.01 | 0.01 | 45 | 1016.9 |
| 20260505224737 | 58 | 129 | 1.0 | 3.0 | 0.00 | 0.01 | 0.01 | 47 | 1017.1 |
| 20260505224235 | 58 | 70 | 2.0 | 7.0 | 0.00 | 0.01 | 0.01 | 47 | 1017.1 |
| 20260505223733 | 58 | 98 | 2.0 | 3.0 | 0.00 | 0.01 | 0.01 | 50 | 1017.1 |
| 20260505223229 | 58 | 85 | 1.0 | 6.0 | 0.00 | 0.01 | 0.01 | 47 | 1017.1 |
| 20260505222725 | 58 | 81 | 4.0 | 6.0 | 0.00 | 0.01 | 0.01 | 47 | 1017.4 |
| 20260505222221 | 58 | 47 | 2.0 | 4.0 | 0.00 | 0.01 | 0.01 | 50 | 1017.1 |
| 20260505221719 | 58 | 102 | 1.0 | 7.0 | 0.00 | 0.01 | 0.01 | 53 | 1017.2 |
| 20260505221215 | 57 | 98 | 4.0 | 6.0 | 0.00 | 0.01 | 0.01 | 51 | 1017.2 |
| 20260505220712 | 57 | 69 | 2.0 | 13.0 | 0.00 | 0.01 | 0.01 | 52 | 1017.2 |
| 20260505220210 | 57 | 123 | 2.0 | 4.0 | 0.00 | 0.01 | 0.01 | 55 | 1017.5 |
| 20260505215708 | 57 | 134 | 1.0 | 4.0 | 0.00 | 0.01 | 0.01 | 56 | 1017.4 |
| 20260505215205 | 56 | 49 | 5.0 | 8.0 | 0.00 | 0.01 | 0.01 | 55 | 1017.2 |
| 20260505214703 | 57 | 82 | 2.0 | 6.0 | 0.00 | 0.01 | 0.01 | 54 | 1017.4 |
| 20260505214200 | 57 | 320 | 4.0 | 6.0 | 0.00 | 0.01 | 0.01 | 56 | 1017.1 |
| 20260505213657 | 55 | 119 | 0.0 | 2.0 | 0.00 | 0.01 | 0.01 | 60 | 1017.5 |
| 20260505213154 | 55 | 106 | 1.0 | 4.0 | 0.00 | 0.01 | 0.01 | 60 | 1017.6 |
| 20260505212650 | 55 | 21 | 2.0 | 6.0 | 0.00 | 0.01 | 0.01 | 59 | 1017.5 |
| 20260505212148 | 55 | 352 | 5.0 | 6.0 | 0.00 | 0.01 | 0.01 | 59 | 1017.6 |
| 20260505211644 | 55 | 77 | 3.0 | 6.0 | 0.00 | 0.01 | 0.01 | 58 | 1017.5 |
| 20260505211142 | 55 | 42 | 4.0 | 7.0 | 0.00 | 0.01 | 0.01 | 59 | 1017.6 |
| 20260505210638 | 55 | 102 | 2.0 | 6.0 | 0.00 | 0.01 | 0.01 | 58 | 1017.4 |
| 20260505210135 | 55 | 105 | 1.0 | 4.0 | 0.00 | 0.01 | 0.01 | 58 | 1017.7 |
| 20260505205632 | 55 | 59 | 3.0 | 8.0 | 0.00 | 0.01 | 0.01 | 60 | 1017.4 |
| 20260505205131 | 56 | 71 | 3.0 | 10.0 | 0.00 | 0.01 | 0.01 | 60 | 1017.5 |
| 20260505204627 | 54 | 128 | 0.0 | 1.0 | 0.00 | 0.01 | 0.01 | 63 | 1017.4 |
| 20260505204125 | 55 | 52 | 1.0 | 4.0 | 0.00 | 0.01 | 0.01 | 62 | 1017.5 |
| 20260505203621 | 55 | 86 | 3.0 | 7.0 | 0.00 | 0.01 | 0.01 | 59 | 1017.2 |
| 20260505203119 | 55 | 78 | 4.0 | 6.0 | 0.00 | 0.01 | 0.01 | 56 | 1017.5 |
| 20260505202614 | 55 | 159 | 6.0 | 8.0 | 0.00 | 0.01 | 0.01 | 62 | 1017.5 |
| 20260505202110 | 56 | 50 | 2.0 | 7.0 | 0.00 | 0.01 | 0.01 | 61 | 1017.4 |
| 20260505201607 | 55 | 96 | 4.0 | 4.0 | 0.00 | 0.01 | 0.01 | 60 | 1017.5 |
| 20260505201105 | 54 | 38 | 2.0 | 6.0 | 0.00 | 0.01 | 0.01 | 61 | 1017.4 |
| 20260505200603 | 53 | 78 | 3.0 | 4.0 | 0.00 | 0.01 | 0.01 | 67 | 1017.4 |
| 20260505200059 | 54 | 114 | 3.0 | 6.0 | 0.00 | 0.01 | 0.01 | 66 | 1017.6 |
| 20260505195555 | 53 | 113 | 0.0 | 6.0 | 0.00 | 0.01 | 0.01 | 67 | 1017.2 |
| 20260505195053 | 54 | 54 | 4.0 | 9.0 | 0.00 | 0.01 | 0.01 | 67 | 1017.5 |
| 20260505194550 | 53 | 131 | 2.0 | 3.0 | 0.00 | 0.01 | 0.01 | 68 | 1017.9 |
| 20260505194045 | 54 | 142 | 2.0 | 3.0 | 0.00 | 0.01 | 0.01 | 70 | 1017.5 |
| 20260505193543 | 52 | 107 | 0.0 | 1.0 | 0.00 | 0.01 | 0.01 | 76 | 1017.7 |
| 20260505193040 | 51 | 119 | 0.0 | 0.0 | 0.00 | 0.01 | 0.01 | 81 | 1017.6 |
| 20260505192539 | 50 | 109 | 0.0 | 3.0 | 0.00 | 0.01 | 0.01 | 81 | 1017.6 |
| 20260505192036 | 50 | 84 | 1.0 | 2.0 | 0.00 | 0.01 | 0.01 | 80 | 1017.6 |
| 20260505191534 | 48 | 114 | 0.0 | 2.0 | 0.00 | 0.01 | 0.01 | 82 | 1017.6 |
| 20260505191031 | 49 | 122 | 1.0 | 3.0 | 0.00 | 0.01 | 0.01 | 79 | 1017.6 |
| 20260505190526 | 49 | 89 | 1.0 | 4.0 | 0.00 | 0.01 | 0.01 | 80 | 1017.6 |
| 20260505190022 | 49 | 121 | 1.0 | 2.0 | 0.00 | 0.01 | 0.01 | 80 | 1017.6 |
| 20260505185519 | 49 | 94 | 2.0 | 4.0 | 0.00 | 0.01 | 0.01 | 79 | 1017.7 |
| 20260505185016 | 49 | 111 | 2.0 | 4.0 | 0.00 | 0.01 | 0.01 | 80 | 1017.5 |
| 20260505184513 | 47 | 99 | 1.0 | 3.0 | 0.00 | 0.01 | 0.01 | 84 | 1017.5 |
| 20260505184009 | 47 | 105 | 1.0 | 2.0 | 0.00 | 0.01 | 0.01 | 82 | 1017.5 |
| 20260505183506 | 48 | 118 | 0.0 | 0.0 | 0.00 | 0.01 | 0.01 | 84 | 1017.1 |
| 20260505183003 | 47 | 123 | 0.0 | 2.0 | 0.00 | 0.01 | 0.01 | 84 | 1017.5 |
| 20260505182500 | 46 | 111 | 1.0 | 1.0 | 0.00 | 0.01 | 0.01 | 89 | 1017.4 |
| 20260505181956 | 46 | 109 | 1.0 | 2.0 | 0.00 | 0.01 | 0.01 | 87 | 1017.4 |
| 20260505181453 | 46 | 113 | 2.0 | 2.0 | 0.00 | 0.01 | 0.01 | 86 | 1017.2 |
| 20260505180950 | 46 | 107 | 1.0 | 3.0 | 0.00 | 0.01 | 0.01 | 87 | 1017.2 |
| 20260505180446 | 46 | 111 | 0.0 | 1.0 | 0.00 | 0.01 | 0.01 | 86 | 1017.1 |
| 20260505175943 | 45 | 114 | 0.0 | 0.0 | 0.00 | 0.01 | 0.01 | 90 | 1017.4 |
| 20260505175439 | 45 | 90 | 0.0 | 1.0 | 0.00 | 0.01 | 0.01 | 89 | 1017.2 |
| 20260505174936 | 45 | 92 | 1.0 | 2.0 | 0.00 | 0.01 | 0.01 | 90 | 1017.1 |
| 20260505174433 | 44 | 126 | 0.0 | 2.0 | 0.00 | 0.01 | 0.01 | 91 | 1017.0 |
| 20260505173929 | 44 | 93 | 1.0 | 4.0 | 0.00 | 0.01 | 0.01 | 89 | 1016.8 |
| 20260505173426 | 44 | 60 | 1.0 | 1.0 | 0.00 | 0.01 | 0.01 | 89 | 1017.0 |
| 20260505172923 | 44 | 104 | 0.0 | 2.0 | 0.00 | 0.01 | 0.01 | 90 | 1016.8 |
| 20260505172421 | 44 | 108 | 0.0 | 1.0 | 0.00 | 0.01 | 0.01 | 90 | 1017.0 |
| 20260505171920 | 44 | 100 | 1.0 | 4.0 | 0.00 | 0.01 | 0.01 | 91 | 1016.8 |
| 20260505171418 | 44 | 89 | 1.0 | 1.0 | 0.00 | 0.01 | 0.01 | 91 | 1016.8 |
| 20260505170914 | 44 | 75 | 2.0 | 3.0 | 0.00 | 0.01 | 0.01 | 91 | 1016.6 |
| 20260505170411 | 43 | 106 | 1.0 | 2.0 | 0.00 | 0.01 | 0.01 | 92 | 1016.6 |
| 20260505165906 | 43 | 93 | 0.0 | 3.0 | 0.00 | 0.01 | 0.01 | 92 | 1016.9 |
| 20260505165402 | 43 | 113 | 0.0 | 6.0 | 0.00 | 0.01 | 0.01 | 93 | 1016.6 |
| 20260505164858 | 43 | 326 | 4.0 | 4.0 | 0.00 | 0.01 | 0.01 | 92 | 1016.6 |
| 20260505164355 | 43 | 116 | 1.0 | 2.0 | 0.00 | 0.01 | 0.01 | 93 | 1016.5 |
| 20260505163853 | 43 | 7 | 2.0 | 3.0 | 0.00 | 0.01 | 0.01 | 93 | 1016.4 |
| 20260505163352 | 43 | 125 | 0.0 | 2.0 | 0.00 | 0.01 | 0.01 | 94 | 1016.6 |
| 20260505162850 | 42 | 186 | 1.0 | 2.0 | 0.00 | 0.01 | 0.01 | 95 | 1016.5 |
| 20260505162345 | 42 | 115 | 1.0 | 2.0 | 0.00 | 0.01 | 0.01 | 96 | 1016.3 |
| 20260505161843 | 42 | 80 | 1.0 | 2.0 | 0.00 | 0.01 | 0.01 | 96 | 1016.4 |
| 20260505161340 | 41 | 105 | 1.0 | 1.0 | 0.00 | 0.01 | 0.01 | 97 | 1016.0 |
| 20260505160837 | 41 | 100 | 1.0 | 1.0 | 0.00 | 0.01 | 0.01 | 98 | 1016.0 |
| 20260505160335 | 41 | 100 | 0.0 | 1.0 | 0.00 | 0.01 | 0.01 | 98 | 1016.3 |
| 20260505153314 | 39 | 108 | 0.0 | 1.0 | 0.00 | 0.01 | 0.01 | 99 | 1016.0 |
| 20260505152811 | 39 | 112 | 0.0 | 1.0 | 0.00 | 0.01 | 0.01 | 99 | 1015.9 |
| 20260505152307 | 39 | 110 | 0.0 | 1.0 | 0.00 | 0.01 | 0.01 | 99 | 1015.8 |
| 20260505151802 | 39 | 107 | 0.0 | 1.0 | 0.00 | 0.01 | 0.01 | 99 | 1015.8 |
| 20260505151259 | 39 | 113 | 0.0 | 0.0 | 0.00 | 0.01 | 0.01 | 99 | 1015.7 |
| 20260505150756 | 38 | 119 | 0.0 | 0.0 | 0.00 | 0.01 | 0.01 | 99 | 1015.7 |
| 20260505150253 | 38 | 117 | 0.0 | 1.0 | 0.00 | 0.01 | 0.01 | 99 | 1015.4 |
| 20260505140223 | 37 | 126 | 0.0 | 0.0 | 0.00 | 0.01 | 0.01 | 99 | 1015.0 |
| 20260505130147 | 36 | 127 | 0.0 | 0.0 | 0.00 | 0.00 | 0.00 | 99 | 1014.7 |
| 20260505124637 | 36 | 127 | 0.0 | 0.0 | 0.00 | 0.00 | 0.00 | 99 | 1014.4 |
| 20260505124133 | 36 | 126 | 0.0 | 0.0 | 0.00 | 0.00 | 0.00 | 99 | 1014.4 |
| 20260505123629 | 36 | 126 | 0.0 | 0.0 | 0.00 | 0.00 | 0.00 | 99 | 1014.6 |
| 20260505123126 | 36 | 126 | 0.0 | 0.0 | 0.00 | 0.00 | 0.00 | 99 | 1014.6 |
| 20260505122623 | 36 | 126 | 0.0 | 0.0 | 0.00 | 0.00 | 0.00 | 99 | 1014.4 |
| 20260505122120 | 36 | 123 | 0.0 | 0.0 | 0.00 | 0.00 | 0.00 | 99 | 1014.6 |
| 20260505121616 | 36 | 126 | 0.0 | 0.0 | 0.00 | 0.00 | 0.00 | 99 | 1014.7 |
| 20260505121113 | 36 | 126 | 0.0 | 0.0 | 0.00 | 0.00 | 0.00 | 99 | 1014.3 |
| 20260505120609 | 36 | 126 | 0.0 | 0.0 | 0.00 | 0.00 | 0.00 | 99 | 1014.6 |
| 20260505120105 | 36 | 126 | 0.0 | 0.0 | 0.00 | 0.00 | 0.00 | 99 | 1014.3 |
| 20260505115600 | 36 | 126 | 0.0 | 0.0 | 0.00 | 0.00 | 0.00 | 99 | 1014.4 |
| 20260505115058 | 36 | 126 | 0.0 | 0.0 | 0.00 | 0.00 | 0.00 | 99 | 1014.3 |
| 20260505114555 | 36 | 126 | 0.0 | 0.0 | 0.00 | 0.00 | 0.00 | 99 | 1014.3 |
| 20260505114051 | 36 | 127 | 0.0 | 0.0 | 0.00 | 0.00 | 0.00 | 99 | 1014.6 |
| 20260505113547 | 36 | 127 | 0.0 | 0.0 | 0.00 | 0.00 | 0.00 | 99 | 1014.4 |
| 20260505113044 | 36 | 127 | 0.0 | 0.0 | 0.00 | 0.00 | 0.00 | 99 | 1014.6 |
| 20260505112540 | 36 | 127 | 0.0 | 1.0 | 0.00 | 0.00 | 0.00 | 99 | 1014.4 |
| 20260505112038 | 36 | 126 | 0.0 | 0.0 | 0.00 | 0.00 | 0.00 | 99 | 1014.4 |
| 20260505111532 | 36 | 126 | 0.0 | 0.0 | 0.00 | 0.00 | 0.00 | 99 | 1014.4 |
| 20260505111028 | 36 | 126 | 0.0 | 0.0 | 0.00 | 0.00 | 0.00 | 99 | 1014.7 |
| 20260505110525 | 36 | 126 | 0.0 | 0.0 | 0.00 | 0.00 | 0.00 | 99 | 1014.7 |
| 20260505101957 | 36 | 124 | 0.0 | 0.0 | 0.00 | 0.00 | 0.00 | 99 | 1014.7 |
| 20260505101455 | 36 | 123 | 0.0 | 0.0 | 0.00 | 0.00 | 0.00 | 99 | 1014.8 |
| 20260505100951 | 36 | 124 | 0.0 | 0.0 | 0.00 | 0.00 | 0.00 | 99 | 1014.6 |
| 20260505100449 | 35 | 122 | 0.0 | 0.0 | 0.00 | 0.00 | 0.00 | 99 | 1014.8 |
| 20260505095945 | 36 | 122 | 0.0 | 0.0 | 0.00 | 0.00 | 0.00 | 99 | 1014.7 |
| 20260505095442 | 35 | 122 | 0.0 | 0.0 | 0.00 | 0.00 | 0.00 | 99 | 1014.8 |
| 20260505094938 | 35 | 126 | 0.0 | 0.0 | 0.00 | 0.00 | 0.00 | 99 | 1014.9 |
| 20260505094435 | 35 | 127 | 0.0 | 0.0 | 0.00 | 0.00 | 0.00 | 99 | 1014.8 |
| 20260505093931 | 35 | 127 | 0.0 | 0.0 | 0.00 | 0.00 | 0.00 | 99 | 1014.7 |
| 20260505093428 | 35 | 126 | 0.0 | 0.0 | 0.00 | 0.00 | 0.00 | 99 | 1014.8 |
| 20260505092925 | 35 | 126 | 0.0 | 0.0 | 0.00 | 0.00 | 0.00 | 99 | 1015.0 |
| 20260505092423 | 35 | 126 | 0.0 | 0.0 | 0.00 | 0.00 | 0.00 | 99 | 1014.9 |
| 20260505091920 | 35 | 126 | 0.0 | 0.0 | 0.00 | 0.00 | 0.00 | 99 | 1015.0 |
| 20260505091417 | 35 | 126 | 0.0 | 0.0 | 0.00 | 0.00 | 0.00 | 99 | 1015.0 |
| 20260505090915 | 35 | 126 | 0.0 | 0.0 | 0.00 | 0.00 | 0.00 | 99 | 1015.2 |
| 20260505090414 | 35 | 126 | 0.0 | 0.0 | 0.00 | 0.00 | 0.00 | 99 | 1015.0 |
| 20260505085910 | 35 | 126 | 0.0 | 0.0 | 0.00 | 0.00 | 0.00 | 99 | 1015.0 |
| 20260505085408 | 35 | 130 | 0.0 | 0.0 | 0.00 | 0.00 | 0.00 | 99 | 1015.3 |
| 20260505084906 | 35 | 131 | 0.0 | 0.0 | 0.00 | 0.00 | 0.00 | 99 | 1015.3 |
| 20260505084404 | 35 | 132 | 0.0 | 0.0 | 0.00 | 0.00 | 0.00 | 99 | 1015.0 |
| 20260505083902 | 35 | 134 | 0.0 | 0.0 | 0.00 | 0.00 | 0.00 | 99 | 1015.0 |
| 20260505083359 | 35 | 118 | 0.0 | 0.0 | 0.00 | 0.00 | 0.00 | 99 | 1015.3 |
| 20260505082855 | 35 | 118 | 0.0 | 0.0 | 0.00 | 0.00 | 0.00 | 99 | 1015.4 |
| 20260505082351 | 34 | 116 | 0.0 | 0.0 | 0.00 | 0.00 | 0.00 | 99 | 1015.5 |
| 20260505081848 | 34 | 114 | 0.0 | 1.0 | 0.00 | 0.00 | 0.00 | 99 | 1015.7 |
| 20260505081345 | 34 | 115 | 0.0 | 1.0 | 0.00 | 0.00 | 0.00 | 99 | 1015.2 |
| 20260505080842 | 34 | 124 | 1.0 | 2.0 | 0.00 | 0.00 | 0.00 | 99 | 1015.0 |
| 20260505080338 | 34 | 134 | 0.0 | 1.0 | 0.00 | 0.00 | 0.00 | 99 | 1015.5 |
| 20260505075833 | 34 | 124 | 0.0 | 1.0 | 0.00 | 0.00 | 0.00 | 99 | 1015.9 |
| 20260505075330 | 34 | 130 | 0.0 | 0.0 | 0.00 | 0.00 | 0.00 | 99 | 1015.7 |
| 20260505074827 | 34 | 131 | 0.0 | 0.0 | 0.00 | 0.00 | 0.00 | 99 | 1015.5 |
| 20260505074324 | 34 | 131 | 0.0 | 0.0 | 0.00 | 0.00 | 0.00 | 99 | 1015.7 |
| 20260505073822 | 34 | 131 | 0.0 | 0.0 | 0.00 | 0.00 | 0.00 | 99 | 1015.7 |
| 20260505073320 | 34 | 132 | 0.0 | 0.0 | 0.00 | 0.00 | 0.00 | 99 | 1015.5 |
| 20260505072816 | 34 | 134 | 0.0 | 1.0 | 0.00 | 0.00 | 0.00 | 99 | 1015.7 |
| 20260505072312 | 34 | 131 | 0.0 | 1.0 | 0.00 | 0.00 | 0.00 | 98 | 1015.4 |
| 20260505071809 | 34 | 128 | 0.0 | 0.0 | 0.00 | 0.00 | 0.00 | 98 | 1015.8 |
| 20260505071305 | 34 | 119 | 0.0 | 0.0 | 0.00 | 0.00 | 0.00 | 98 | 1015.7 |
| 20260505070804 | 34 | 124 | 0.0 | 1.0 | 0.00 | 0.00 | 0.00 | 98 | 1015.4 |
| 20260505070259 | 34 | 130 | 0.0 | 1.0 | 0.00 | 0.00 | 0.00 | 98 | 1015.3 |
| 20260505065754 | 34 | 111 | 1.0 | 1.0 | 0.00 | 0.78 | 0.78 | 98 | 1015.3 |
| 20260505065252 | 34 | 111 | 0.0 | 1.0 | 0.00 | 0.78 | 0.78 | 98 | 1015.2 |
| 20260505064749 | 34 | 111 | 0.0 | 1.0 | 0.00 | 0.78 | 0.78 | 98 | 1014.9 |
| 20260505064246 | 34 | 124 | 0.0 | 0.0 | 0.00 | 0.78 | 0.78 | 98 | 1014.9 |
| 20260505063744 | 34 | 124 | 0.0 | 1.0 | 0.00 | 0.78 | 0.78 | 98 | 1014.9 |
| 20260505063240 | 34 | 123 | 0.0 | 1.0 | 0.00 | 0.78 | 0.78 | 98 | 1015.0 |
| 20260505062736 | 34 | 111 | 2.0 | 2.0 | 0.00 | 0.78 | 0.78 | 98 | 1015.0 |
| 20260505062234 | 34 | 111 | 2.0 | 2.0 | 0.00 | 0.78 | 0.78 | 98 | 1015.0 |
| 20260505061731 | 34 | 130 | 0.0 | 0.0 | 0.00 | 0.78 | 0.78 | 98 | 1014.9 |
| 20260505061229 | 34 | 133 | 0.0 | 0.0 | 0.00 | 0.78 | 0.78 | 98 | 1015.3 |
| 20260505060726 | 34 | 134 | 0.0 | 1.0 | 0.00 | 0.78 | 0.78 | 98 | 1015.4 |
| 20260505060223 | 34 | 132 | 0.0 | 0.0 | 0.05 | 0.78 | 0.78 | 98 | 1015.7 |
| 20260505055718 | 34 | 132 | 0.0 | 0.0 | 0.05 | 0.78 | 0.78 | 98 | 1015.8 |